Time;durP1;ratioP1;P1;durP2;ratioP2;P2;SDS_P1;SDS_P2;PMS_P1;PMS_P2;Temp;Humidity;BMP_temperature;BMP_pressure;BME280_temperature;BME280_humidity;BME280_pressure;Samples;Min_cycle;Max_cycle;Signal;HPM_P1;HPM_P2
2021/03/28 00:02:24;;;;;;;12.07;3.92;;;7.70;63.60;;;;;;4994821;28;20019;-96
2021/03/28 00:05:13;;;;;;;12.00;3.70;;;7.70;63.60;;;;;;4978959;28;20062;-94
2021/03/28 00:07:46;;;;;;;7.90;3.10;;;7.60;63.60;;;;;;4978005;28;20030;-93
2021/03/28 00:10:36;;;;;;;7.53;2.58;;;7.70;63.80;;;;;;4978100;28;20039;-94
2021/03/28 00:13:15;;;;;;;9.35;3.40;;;7.60;63.70;;;;;;4988532;28;20082;-94
2021/03/28 00:15:59;;;;;;;6.30;2.70;;;7.70;63.90;;;;;;4997038;28;20077;-95
2021/03/28 00:18:50;;;;;;;7.88;2.72;;;7.60;63.90;;;;;;4995274;28;20061;-95
2021/03/28 00:21:25;;;;;;;6.28;2.10;;;7.60;63.90;;;;;;4983175;28;20071;-94
2021/03/28 00:23:56;;;;;;;8.55;3.28;;;7.70;64.00;;;;;;4985050;28;20015;-94
2021/03/28 00:26:40;;;;;;;8.07;3.28;;;7.70;64.10;;;;;;4983953;28;20011;-95
2021/03/28 00:29:25;;;;;;;8.85;2.80;;;7.70;64.30;;;;;;4999935;28;20019;-94
2021/03/28 00:32:09;;;;;;;7.65;2.58;;;7.70;64.40;;;;;;4983290;28;20046;-95
2021/03/28 00:34:45;;;;;;;5.53;2.38;;;7.70;64.50;;;;;;4981285;28;20034;-94
2021/03/28 00:37:10;;;;;;;7.20;2.72;;;7.70;64.50;;;;;;4965235;28;20034;-94
2021/03/28 00:39:59;;;;;;;7.60;2.90;;;7.70;64.50;;;;;;4975768;28;20031;-92
2021/03/28 00:42:40;;;;;;;6.18;2.10;;;7.70;64.70;;;;;;4980013;28;20031;-94
2021/03/28 00:45:12;;;;;;;9.52;3.33;;;7.70;64.70;;;;;;4983876;28;20030;-93
2021/03/28 00:47:40;;;;;;;5.95;2.00;;;7.70;64.80;;;;;;4979821;28;20032;-92
2021/03/28 00:50:20;;;;;;;7.30;2.50;;;7.70;64.80;;;;;;4978955;28;20087;-92
2021/03/28 00:52:57;;;;;;;6.68;3.17;;;7.70;64.80;;;;;;4978745;28;20035;-93
2021/03/28 00:55:31;;;;;;;5.63;2.35;;;7.70;65.10;;;;;;4992286;28;20045;-92
2021/03/28 00:58:10;;;;;;;7.28;2.92;;;7.70;65.10;;;;;;4972229;28;20031;-91
2021/03/28 01:01:16;;;;;;;5.85;2.88;;;7.70;65.30;;;;;;4962944;28;20023;-96
2021/03/28 01:04:08;;;;;;;10.63;3.80;;;7.70;65.40;;;;;;4977452;28;20055;-96
2021/03/28 01:06:42;;;;;;;12.03;4.00;;;7.70;65.60;;;;;;4978330;28;20039;-96
2021/03/28 01:09:17;;;;;;;12.95;3.97;;;7.70;65.80;;;;;;4963230;28;20302;-96
2021/03/28 01:12:00;;;;;;;9.75;3.45;;;7.70;66.10;;;;;;4967625;28;20078;-96
2021/03/28 01:14:31;;;;;;;12.15;3.97;;;7.70;66.10;;;;;;4963644;28;20023;-96
2021/03/28 01:17:11;;;;;;;8.32;3.10;;;7.70;66.20;;;;;;4988379;28;20007;-95
2021/03/28 01:19:53;;;;;;;6.05;2.40;;;7.70;66.10;;;;;;4968485;28;20087;-94
2021/03/28 01:22:40;;;;;;;9.90;3.75;;;7.80;66.00;;;;;;4981980;28;20027;-96
2021/03/28 01:25:43;;;;;;;9.43;3.90;;;7.80;66.10;;;;;;4977708;28;20553;-96
2021/03/28 01:28:51;;;;;;;9.30;3.20;;;7.80;66.40;;;;;;5057006;23;20034;-96
2021/03/28 01:31:29;;;;;;;9.10;3.30;;;7.80;66.20;;;;;;5009099;28;20097;-96
2021/03/28 01:33:57;;;;;;;10.07;3.30;;;7.70;66.20;;;;;;4994646;28;20494;-96
2021/03/28 01:36:34;;;;;;;9.00;3.65;;;7.80;66.30;;;;;;5006562;28;20030;-95
2021/03/28 01:39:19;;;;;;;14.65;4.18;;;7.80;66.50;;;;;;4986168;28;20042;-95
2021/03/28 01:41:58;;;;;;;6.65;2.92;;;7.80;66.70;;;;;;4989454;28;20058;-96
2021/03/28 01:44:32;;;;;;;10.85;3.30;;;7.70;66.80;;;;;;4999004;28;20014;-96
2021/03/28 01:47:31;;;;;;;7.00;2.65;;;7.80;66.80;;;;;;4998072;28;20019;-96
2021/03/28 01:50:28;;;;;;;6.45;2.55;;;7.80;66.90;;;;;;4985955;28;20106;-95
2021/03/28 01:53:18;;;;;;;9.68;3.30;;;7.70;67.00;;;;;;4980396;28;20482;-96
2021/03/28 01:55:55;;;;;;;10.57;4.00;;;7.70;67.10;;;;;;4991736;28;20023;-96
2021/03/28 01:58:46;;;;;;;6.45;2.60;;;7.70;67.20;;;;;;4998996;28;20030;-95
2021/03/28 02:01:24;;;;;;;8.93;2.92;;;7.70;67.20;;;;;;4988672;28;20042;-96
2021/03/28 02:04:11;;;;;;;7.05;2.90;;;7.70;67.40;;;;;;4997102;28;20102;-96
2021/03/28 02:06:42;;;;;;;8.02;3.05;;;7.80;67.60;;;;;;4995439;28;20037;-96
2021/03/28 02:09:14;;;;;;;6.13;2.40;;;7.70;67.60;;;;;;4997342;28;20026;-96
2021/03/28 02:12:37;;;;;;;8.52;2.92;;;7.70;67.70;;;;;;4997177;28;20030;-96
2021/03/28 02:15:11;;;;;;;7.68;2.45;;;7.70;67.90;;;;;;4962299;28;20042;-96
2021/03/28 02:17:46;;;;;;;10.30;3.22;;;7.70;68.00;;;;;;4978020;28;20035;-96
2021/03/28 02:20:31;;;;;;;7.68;2.65;;;7.60;68.20;;;;;;4988686;28;20042;-96
2021/03/28 02:23:25;;;;;;;11.52;3.17;;;7.70;68.50;;;;;;4995761;28;20061;-96
2021/03/28 02:26:01;;;;;;;6.72;2.38;;;7.60;69.00;;;;;;4982949;28;20029;-96
2021/03/28 02:28:46;;;;;;;6.93;2.10;;;7.60;68.80;;;;;;4995300;28;20038;-96
2021/03/28 02:31:21;;;;;;;6.20;2.20;;;7.60;68.90;;;;;;4996003;28;20421;-96
2021/03/28 02:34:09;;;;;;;6.85;2.40;;;7.60;68.90;;;;;;4994537;28;20038;-96
2021/03/28 02:36:41;;;;;;;10.43;3.25;;;7.70;69.30;;;;;;4994261;28;20480;-96
2021/03/28 02:39:15;;;;;;;9.88;2.13;;;7.70;69.10;;;;;;4995852;28;20537;-96
2021/03/28 02:41:49;;;;;;;14.18;3.38;;;7.70;69.00;;;;;;4996716;28;20035;-96
2021/03/28 02:44:46;;;;;;;12.43;2.75;;;7.70;69.30;;;;;;4997607;28;20027;-96
2021/03/28 02:47:46;;;;;;;5.60;2.03;;;7.70;69.50;;;;;;4987351;28;20031;-96
2021/03/28 02:50:45;;;;;;;5.57;1.70;;;7.70;69.40;;;;;;5007424;28;20046;-96
2021/03/28 02:53:48;;;;;;;6.25;2.10;;;7.70;69.30;;;;;;4999353;28;20043;-96
2021/03/28 02:56:26;;;;;;;6.32;2.10;;;7.60;69.80;;;;;;5000615;28;20037;-96
2021/03/28 03:02:03;;;;;;;5.10;1.90;;;7.70;69.90;;;;;;5186281;23;20061;-96
2021/03/28 03:04:49;;;;;;;6.75;2.15;;;7.70;69.80;;;;;;4984345;28;20034;-94
2021/03/28 03:07:34;;;;;;;5.50;1.92;;;7.70;70.00;;;;;;4959782;28;20037;-95
2021/03/28 03:10:34;;;;;;;7.57;2.30;;;7.70;70.10;;;;;;4971965;28;20395;-95
2021/03/28 03:13:05;;;;;;;6.45;2.00;;;7.70;70.30;;;;;;4974083;28;20035;-95
2021/03/28 03:15:44;;;;;;;8.02;2.20;;;7.70;70.40;;;;;;4974344;28;20023;-96
2021/03/28 03:18:47;;;;;;;9.07;2.42;;;7.70;70.30;;;;;;4976080;28;20031;-96
2021/03/28 03:21:24;;;;;;;6.40;2.38;;;7.70;70.60;;;;;;4975901;28;20023;-96
2021/03/28 03:24:28;;;;;;;7.55;2.22;;;7.70;70.60;;;;;;4982905;28;20031;-94
2021/03/28 03:27:35;;;;;;;5.70;2.08;;;7.70;70.70;;;;;;4976294;28;20030;-91
2021/03/28 03:30:55;;;;;;;7.75;2.47;;;7.70;70.70;;;;;;4961007;28;20118;-93
2021/03/28 03:33:44;;;;;;;11.18;3.20;;;7.70;70.90;;;;;;4895969;29;20076;-92
2021/03/28 03:36:16;;;;;;;7.78;2.38;;;7.60;71.10;;;;;;4965012;28;20051;-94
2021/03/28 03:39:08;;;;;;;4.97;1.70;;;7.60;71.20;;;;;;4976581;28;20018;-94
2021/03/28 03:42:11;;;;;;;4.70;1.73;;;7.60;71.20;;;;;;4974944;28;20496;-93
2021/03/28 03:45:15;;;;;;;11.07;2.50;;;7.60;71.30;;;;;;4973627;28;20031;-93
2021/03/28 03:47:58;;;;;;;7.22;2.10;;;7.60;71.50;;;;;;4973439;28;20034;-91
2021/03/28 03:50:41;;;;;;;6.63;2.00;;;7.60;71.40;;;;;;4979476;28;20019;-93
2021/03/28 03:53:24;;;;;;;8.57;2.63;;;7.60;71.40;;;;;;4983232;28;20026;-92
2021/03/28 03:56:08;;;;;;;10.45;2.85;;;7.60;71.80;;;;;;4983875;28;20031;-92
2021/03/28 03:58:57;;;;;;;6.18;1.90;;;7.60;71.90;;;;;;4999608;28;20042;-91
2021/03/28 04:01:29;;;;;;;7.30;2.30;;;7.60;71.90;;;;;;4948785;28;20105;-93
2021/03/28 04:04:06;;;;;;;9.52;2.75;;;7.60;71.90;;;;;;4976768;28;20098;-92
2021/03/28 04:07:05;;;;;;;8.82;2.40;;;7.60;72.20;;;;;;4974594;28;20033;-90
2021/03/28 04:09:40;;;;;;;7.30;1.90;;;7.60;72.30;;;;;;4965461;28;20093;-91
2021/03/28 04:12:33;;;;;;;5.10;2.17;;;7.60;72.30;;;;;;4973656;28;20035;-91
2021/03/28 04:15:26;;;;;;;9.00;2.38;;;7.70;72.20;;;;;;4975547;28;20027;-92
2021/03/28 04:18:16;;;;;;;7.43;2.13;;;7.70;72.10;;;;;;4954193;28;20363;-91
2021/03/28 04:21:23;;;;;;;9.68;2.28;;;7.70;72.10;;;;;;4971258;28;20041;-91
2021/03/28 04:23:58;;;;;;;7.00;2.22;;;7.70;72.00;;;;;;4966893;28;20046;-91
2021/03/28 04:26:42;;;;;;;7.65;2.20;;;7.70;72.10;;;;;;4973916;28;20481;-92
2021/03/28 04:29:11;;;;;;;8.57;2.40;;;7.70;72.20;;;;;;4972987;28;20054;-91
2021/03/28 04:32:13;;;;;;;7.95;2.53;;;7.70;72.20;;;;;;4972831;28;20054;-91
2021/03/28 04:35:09;;;;;;;8.38;2.30;;;7.70;72.20;;;;;;4973547;28;20633;-91
2021/03/28 04:38:10;;;;;;;13.00;3.42;;;7.70;72.20;;;;;;4964121;28;20062;-96
2021/03/28 04:40:59;;;;;;;4.78;1.90;;;7.70;72.20;;;;;;4973020;28;20169;-94
2021/03/28 04:43:55;;;;;;;6.15;1.90;;;7.70;72.20;;;;;;4975316;28;20123;-92
2021/03/28 04:46:55;;;;;;;6.65;2.30;;;7.70;72.20;;;;;;4972855;28;20366;-94
2021/03/28 04:49:39;;;;;;;10.30;2.72;;;7.80;72.10;;;;;;4973611;28;20043;-94
2021/03/28 04:52:41;;;;;;;7.45;2.50;;;7.70;72.00;;;;;;4988507;28;20042;-93
2021/03/28 04:55:19;;;;;;;6.43;2.00;;;7.80;71.90;;;;;;4974395;28;20030;-94
2021/03/28 04:58:03;;;;;;;6.57;2.20;;;7.80;71.70;;;;;;4964956;28;20077;-95
2021/03/28 05:00:58;;;;;;;5.63;1.80;;;7.80;71.80;;;;;;4969462;28;20047;-94
2021/03/28 05:03:42;;;;;;;8.27;2.53;;;7.80;71.80;;;;;;4990203;28;20085;-95
2021/03/28 05:06:49;;;;;;;8.10;2.50;;;7.80;71.80;;;;;;4993253;28;20030;-93
2021/03/28 05:09:31;;;;;;;5.63;2.05;;;7.80;72.00;;;;;;4961977;28;20030;-92
2021/03/28 05:12:17;;;;;;;5.23;2.03;;;7.80;72.10;;;;;;4964826;28;20035;-92
2021/03/28 05:15:14;;;;;;;8.45;2.45;;;7.80;72.00;;;;;;4958818;28;20031;-91
2021/03/28 05:18:18;;;;;;;6.18;2.00;;;7.80;72.00;;;;;;4966477;28;20581;-92
2021/03/28 05:21:11;;;;;;;10.60;2.42;;;7.80;72.00;;;;;;4975443;28;20026;-92
2021/03/28 05:23:50;;;;;;;;;;;7.80;72.30;;;;;;4977699;28;20023;-91
2021/03/28 05:26:47;;;;;;;8.10;2.63;;;7.80;72.20;;;;;;4957759;28;19919;-93
2021/03/28 05:29:47;;;;;;;6.70;2.08;;;7.80;72.40;;;;;;4962339;28;20038;-94
2021/03/28 05:32:37;;;;;;;6.45;2.40;;;7.80;72.40;;;;;;4976418;28;20035;-94
2021/03/28 05:35:26;;;;;;;6.75;1.90;;;7.90;72.20;;;;;;4976002;28;20034;-94
2021/03/28 05:38:04;;;;;;;9.48;2.70;;;7.90;72.10;;;;;;4976697;28;20026;-95
2021/03/28 05:41:00;;;;;;;5.35;1.90;;;8.00;72.10;;;;;;4990844;28;20034;-95
2021/03/28 05:43:57;;;;;;;4.70;1.75;;;8.00;72.10;;;;;;4969700;28;20186;-95
2021/03/28 05:46:51;;;;;;;5.80;2.00;;;8.00;71.90;;;;;;4961769;28;20047;-94
2021/03/28 05:49:55;;;;;;;6.68;2.10;;;8.10;71.80;;;;;;4974848;28;20046;-93
2021/03/28 05:52:29;;;;;;;4.45;1.98;;;8.10;71.80;;;;;;5010118;28;20113;-94
2021/03/28 05:55:30;;;;;;;8.63;2.72;;;8.20;71.80;;;;;;4984011;28;20113;-91
2021/03/28 05:58:02;;;;;;;4.95;1.70;;;8.10;71.90;;;;;;4972376;28;20080;-94
2021/03/28 06:00:39;;;;;;;4.85;1.73;;;8.20;71.70;;;;;;4991124;28;20093;-94
2021/03/28 06:03:14;;;;;;;4.30;1.60;;;8.30;71.70;;;;;;4976522;28;20023;-94
2021/03/28 06:06:12;;;;;;;5.53;1.55;;;8.30;71.60;;;;;;4975521;28;20031;-93
2021/03/28 06:09:23;;;;;;;7.80;1.92;;;8.40;71.50;;;;;;4976369;28;20103;-95
2021/03/28 06:12:04;;;;;;;6.32;1.90;;;8.40;71.40;;;;;;4972587;28;20481;-90
2021/03/28 06:14:42;;;;;;;6.03;2.03;;;8.40;71.40;;;;;;4961641;28;20055;-92
2021/03/28 06:17:48;;;;;;;7.22;2.45;;;8.40;71.40;;;;;;4978987;28;20022;-93
2021/03/28 06:20:41;;;;;;;8.82;2.60;;;8.50;71.40;;;;;;4976021;28;20119;-93
2021/03/28 06:23:46;;;;;;;5.22;1.70;;;8.50;71.40;;;;;;4971890;28;20028;-92
2021/03/28 06:26:30;;;;;;;6.28;2.15;;;8.50;71.30;;;;;;4977923;28;20035;-92
2021/03/28 06:29:31;;;;;;;4.85;2.17;;;8.50;71.20;;;;;;4975264;28;20039;-92
2021/03/28 06:32:15;;;;;;;3.42;1.45;;;8.60;71.20;;;;;;4971224;28;20038;-91
2021/03/28 06:35:37;;;;;;;5.47;2.13;;;8.60;71.10;;;;;;4961705;28;20034;-92
2021/03/28 06:38:12;;;;;;;6.88;2.10;;;8.60;71.00;;;;;;4970741;28;20113;-91
2021/03/28 06:40:42;;;;;;;6.22;2.15;;;8.70;71.00;;;;;;4970721;28;20030;-91
2021/03/28 06:43:43;;;;;;;5.60;1.95;;;8.80;71.00;;;;;;4973823;28;20033;-91
2021/03/28 06:46:54;;;;;;;7.47;2.70;;;8.90;70.70;;;;;;4979354;28;20022;-90
2021/03/28 06:49:41;;;;;;;6.38;2.22;;;9.10;70.30;;;;;;4957746;28;20477;-91
2021/03/28 06:52:13;;;;;;;5.95;1.90;;;9.10;69.90;;;;;;4964062;28;20089;-92
2021/03/28 06:55:19;;;;;;;6.25;2.03;;;9.20;69.80;;;;;;4964243;28;20003;-92
2021/03/28 06:58:13;;;;;;;7.32;2.45;;;9.20;69.60;;;;;;4898434;29;20053;-93
2021/03/28 07:01:10;;;;;;;3.80;1.70;;;9.30;69.50;;;;;;4902694;29;20104;-92
2021/03/28 07:04:13;;;;;;;4.82;2.20;;;9.30;69.40;;;;;;4966530;28;20031;-91
2021/03/28 07:06:42;;;;;;;5.47;2.15;;;9.40;68.90;;;;;;4975058;28;20022;-92
2021/03/28 07:09:14;;;;;;;5.78;2.25;;;9.60;68.80;;;;;;4971448;28;20046;-92
2021/03/28 07:12:00;;;;;;;7.30;2.80;;;9.70;68.50;;;;;;4985866;28;20132;-91
2021/03/28 07:14:35;;;;;;;4.82;1.90;;;9.80;68.20;;;;;;4955560;28;20173;-93
2021/03/28 07:17:30;;;;;;;7.78;2.72;;;9.90;68.00;;;;;;4970378;28;20034;-88
2021/03/28 07:20:29;;;;;;;7.57;2.20;;;9.90;67.60;;;;;;4973045;28;20038;-91
2021/03/28 07:23:22;;;;;;;9.95;3.15;;;9.80;67.70;;;;;;4966786;28;20027;-91
2021/03/28 07:26:05;;;;;;;5.18;2.10;;;9.70;67.90;;;;;;4966761;28;20031;-94
2021/03/28 07:29:11;;;;;;;8.48;2.33;;;9.70;68.20;;;;;;4962947;28;20041;-96
2021/03/28 07:32:05;;;;;;;8.40;2.45;;;9.70;68.30;;;;;;4971694;28;20094;-93
2021/03/28 07:34:58;;;;;;;5.13;2.30;;;9.80;68.30;;;;;;4975673;28;20026;-94
2021/03/28 07:38:00;;;;;;;5.85;2.03;;;10.00;68.10;;;;;;4975141;28;20374;-94
2021/03/28 07:40:41;;;;;;;7.38;2.40;;;10.00;68.00;;;;;;4968514;28;20039;-95
2021/03/28 07:43:43;;;;;;;5.75;2.00;;;10.00;67.90;;;;;;4971966;28;20063;-93
2021/03/28 07:46:08;;;;;;;8.35;2.20;;;10.00;68.00;;;;;;4966268;28;20015;-96
2021/03/28 07:48:56;;;;;;;6.68;2.33;;;10.10;67.90;;;;;;4974282;28;20027;-95
2021/03/28 07:51:31;;;;;;;6.53;2.75;;;10.30;67.70;;;;;;4972155;28;20050;-94
2021/03/28 07:54:26;;;;;;;6.28;2.33;;;10.30;67.40;;;;;;4990050;28;20037;-95
2021/03/28 07:57:04;;;;;;;6.80;2.20;;;10.40;67.40;;;;;;4960891;28;20046;-95
2021/03/28 07:59:54;;;;;;;4.90;2.03;;;10.40;67.20;;;;;;4974259;28;20497;-94
2021/03/28 08:02:44;;;;;;;6.43;2.78;;;10.50;67.10;;;;;;4964177;28;20042;-95
2021/03/28 08:05:33;;;;;;;6.25;2.28;;;10.50;67.10;;;;;;4972119;28;20062;-95
2021/03/28 08:08:30;;;;;;;6.65;2.40;;;10.60;67.10;;;;;;4973272;28;20501;-95
2021/03/28 08:11:22;;;;;;;5.68;2.20;;;10.60;67.10;;;;;;4962299;28;20038;-95
2021/03/28 08:13:51;;;;;;;6.13;2.50;;;10.70;66.90;;;;;;4974018;28;20054;-93
2021/03/28 08:16:36;;;;;;;7.07;2.60;;;10.80;66.90;;;;;;4974400;28;20038;-93
2021/03/28 08:19:39;;;;;;;6.35;2.58;;;10.80;66.80;;;;;;4968417;28;20030;-94
2021/03/28 08:22:27;;;;;;;5.50;2.22;;;10.90;66.70;;;;;;4955761;28;20035;-92
2021/03/28 08:25:12;;;;;;;9.25;3.35;;;11.00;66.80;;;;;;4969536;28;20027;-93
2021/03/28 08:27:59;;;;;;;8.40;3.20;;;11.00;66.50;;;;;;4972488;28;20138;-95
2021/03/28 08:31:00;;;;;;;7.88;2.58;;;11.00;66.50;;;;;;4967808;28;20015;-94
2021/03/28 08:33:41;;;;;;;7.45;3.15;;;11.20;66.50;;;;;;4974579;28;20041;-93
2021/03/28 08:36:25;;;;;;;6.75;2.55;;;11.20;66.30;;;;;;4976262;28;20034;-94
2021/03/28 08:39:24;;;;;;;7.82;2.85;;;11.20;66.30;;;;;;4973591;28;20117;-91
2021/03/28 08:42:28;;;;;;;6.85;2.65;;;11.30;66.20;;;;;;4975366;28;20019;-94
2021/03/28 08:45:32;;;;;;;7.47;3.00;;;11.30;66.00;;;;;;4970427;28;20049;-91
2021/03/28 08:48:35;;;;;;;6.15;2.35;;;11.40;65.90;;;;;;4990556;28;20031;-91
2021/03/28 08:51:27;;;;;;;6.53;2.50;;;11.50;65.80;;;;;;4977530;28;20049;-92
2021/03/28 08:54:11;;;;;;;7.55;3.40;;;11.60;65.50;;;;;;4973748;28;20078;-90
2021/03/28 08:57:04;;;;;;;8.30;2.60;;;11.70;65.20;;;;;;4972603;28;20031;-91
2021/03/28 09:00:07;;;;;;;7.35;2.45;;;11.70;65.00;;;;;;4974461;28;20095;-92
2021/03/28 09:03:00;;;;;;;8.68;2.85;;;11.80;65.10;;;;;;4976915;28;20031;-91
2021/03/28 09:05:55;;;;;;;7.97;2.70;;;11.90;65.00;;;;;;4972135;28;20031;-90
2021/03/28 09:08:34;;;;;;;7.47;2.47;;;11.90;64.80;;;;;;4959937;28;20039;-90
2021/03/28 09:11:22;;;;;;;6.15;2.38;;;11.90;64.60;;;;;;4969468;28;20035;-91
2021/03/28 09:13:49;;;;;;;7.05;2.55;;;12.10;64.70;;;;;;4981967;28;20046;-95
2021/03/28 09:16:38;;;;;;;9.55;2.95;;;12.20;64.40;;;;;;4984045;28;20023;-93
2021/03/28 09:19:15;;;;;;;9.07;3.22;;;12.30;64.00;;;;;;4975138;28;20027;-92
2021/03/28 09:22:10;;;;;;;8.40;2.20;;;12.50;62.90;;;;;;4976658;28;20027;-94
2021/03/28 09:24:48;;;;;;;4.63;2.00;;;12.50;62.40;;;;;;4974902;28;20030;-94
2021/03/28 09:27:44;;;;;;;8.10;2.72;;;12.70;62.20;;;;;;4975228;28;20397;-94
2021/03/28 09:30:22;;;;;;;10.15;2.42;;;12.80;61.30;;;;;;4975205;28;20022;-95
2021/03/28 09:33:43;;;;;;;8.30;2.60;;;12.80;60.70;;;;;;4990753;28;20117;-93
2021/03/28 09:36:25;;;;;;;6.45;2.13;;;12.90;60.60;;;;;;4976800;28;20075;-95
2021/03/28 09:39:25;;;;;;;8.82;2.67;;;12.90;60.70;;;;;;4973764;28;20047;-94
2021/03/28 09:41:56;;;;;;;6.05;2.55;;;13.10;60.40;;;;;;4976973;28;20042;-94
2021/03/28 09:44:41;;;;;;;5.20;2.03;;;13.10;60.10;;;;;;4975819;28;20549;-90
2021/03/28 09:47:33;;;;;;;7.00;2.13;;;13.10;59.80;;;;;;4990877;28;20105;-93
2021/03/28 09:50:05;;;;;;;5.43;1.80;;;13.20;59.10;;;;;;4947453;28;20537;-88
2021/03/28 09:52:52;;;;;;;6.32;1.88;;;13.20;58.90;;;;;;4962188;28;20042;-89
2021/03/28 09:55:41;;;;;;;5.63;2.05;;;13.30;58.90;;;;;;4972331;28;20031;-89
2021/03/28 09:58:33;;;;;;;5.80;1.80;;;13.40;58.70;;;;;;4988936;28;20031;-88
2021/03/28 10:01:11;;;;;;;5.82;2.30;;;13.50;58.80;;;;;;4973472;28;20444;-91
2021/03/28 10:04:13;;;;;;;7.95;2.30;;;13.60;58.30;;;;;;4975688;28;20079;-91
2021/03/28 10:06:39;;;;;;;6.05;2.08;;;13.60;57.90;;;;;;4954837;28;20154;-90
2021/03/28 10:09:10;;;;;;;7.15;2.05;;;13.50;57.50;;;;;;4967694;28;20181;-91
2021/03/28 10:11:45;;;;;;;5.88;2.10;;;13.50;57.10;;;;;;4970293;28;20058;-91
2021/03/28 10:14:45;;;;;;;4.65;1.90;;;13.50;57.20;;;;;;4973976;28;20161;-90
2021/03/28 10:17:46;;;;;;;5.13;1.90;;;13.60;56.30;;;;;;4970467;28;20352;-92
2021/03/28 10:20:35;;;;;;;3.97;1.58;;;13.60;55.80;;;;;;4969547;28;20046;-92
2021/03/28 10:23:52;;;;;;;3.58;1.40;;;13.70;55.80;;;;;;4972593;28;20115;-91
2021/03/28 10:26:34;;;;;;;5.50;1.85;;;13.90;55.50;;;;;;4957935;28;20103;-94
2021/03/28 10:29:33;;;;;;;5.40;1.70;;;14.00;54.50;;;;;;4974667;28;20103;-94
2021/03/28 10:32:40;;;;;;;6.18;1.90;;;13.90;54.00;;;;;;4972090;28;20042;-94
2021/03/28 10:35:25;;;;;;;4.10;1.60;;;13.90;53.90;;;;;;4988915;28;20023;-96
2021/03/28 10:38:17;;;;;;;4.47;1.77;;;13.90;53.80;;;;;;4977222;28;20031;-96
2021/03/28 10:41:06;;;;;;;5.40;1.90;;;13.90;52.20;;;;;;4973743;28;20023;-96
2021/03/28 10:43:54;;;;;;;7.43;2.63;;;13.80;51.80;;;;;;4981856;28;20055;-96
2021/03/28 10:46:32;;;;;;;4.78;1.70;;;13.80;51.00;;;;;;4971599;28;20518;-96
2021/03/28 10:49:16;;;;;;;5.70;2.00;;;13.70;51.70;;;;;;4972206;28;20073;-96
2021/03/28 10:52:16;;;;;;;5.25;1.95;;;13.70;52.00;;;;;;4992244;28;20074;-96
2021/03/28 10:54:59;;;;;;;5.80;2.00;;;13.70;52.20;;;;;;4975165;28;20030;-95
2021/03/28 10:58:12;;;;;;;4.80;1.95;;;13.60;52.40;;;;;;4985008;28;20023;-95
2021/03/28 11:01:15;;;;;;;3.22;1.40;;;13.60;52.60;;;;;;4984587;28;20078;-96
2021/03/28 11:03:59;;;;;;;;;;;13.60;53.30;;;;;;4974105;28;20034;-94
2021/03/28 11:06:38;;;;;;;7.72;2.08;;;13.60;53.30;;;;;;4996508;28;19914;-91
2021/03/28 11:09:32;;;;;;;6.38;2.20;;;13.50;53.80;;;;;;5269441;23;20050;-96
2021/03/28 11:40:32;;;;;;;3.00;1.20;;;13.10;57.50;;;;;;4994605;28;20057;-96
2021/03/28 11:43:36;;;;;;;3.67;1.40;;;13.10;58.00;;;;;;4989240;28;20078;-94
2021/03/28 11:46:05;;;;;;;6.13;1.63;;;13.00;58.40;;;;;;4984826;28;20125;-94
2021/03/28 11:48:53;;;;;;;8.30;1.90;;;12.90;58.90;;;;;;4987244;28;20429;-94
2021/03/28 11:51:18;;;;;;;5.78;1.63;;;12.90;59.20;;;;;;4976804;28;20043;-94
2021/03/28 11:53:47;;;;;;;6.75;2.00;;;12.80;59.10;;;;;;4991787;28;20117;-93
2021/03/28 11:56:34;;;;;;;5.35;1.50;;;12.70;59.30;;;;;;4995881;28;20055;-95
2021/03/28 11:59:04;;;;;;;7.03;1.67;;;12.70;59.60;;;;;;4995755;28;20031;-94
2021/03/28 12:01:54;;;;;;;4.78;1.50;;;12.70;59.60;;;;;;4993810;28;20178;-95
2021/03/28 12:04:23;;;;;;;3.85;1.35;;;12.70;59.50;;;;;;4980798;28;20098;-94
2021/03/28 12:06:59;;;;;;;5.43;1.85;;;12.70;59.70;;;;;;4978394;28;20427;-92
2021/03/28 12:09:29;;;;;;;5.95;1.80;;;12.80;59.80;;;;;;4975875;28;20023;-94
2021/03/28 12:12:12;;;;;;;6.78;1.75;;;12.80;59.60;;;;;;4976543;28;20117;-92
2021/03/28 12:14:38;;;;;;;8.77;3.20;;;12.90;59.50;;;;;;5000649;28;20014;-94
2021/03/28 12:17:09;;;;;;;6.18;2.50;;;13.00;59.30;;;;;;4995106;28;20019;-92
2021/03/28 12:19:56;;;;;;;5.10;1.80;;;12.90;58.60;;;;;;4997026;28;20033;-92
2021/03/28 12:22:42;;;;;;;3.80;1.63;;;12.90;58.50;;;;;;4993811;28;20031;-87
2021/03/28 12:25:13;;;;;;;8.70;2.22;;;12.90;58.40;;;;;;4975570;28;20505;-87
2021/03/28 12:27:56;;;;;;;5.25;1.60;;;12.80;58.30;;;;;;4985483;28;20197;-88
2021/03/28 12:30:43;;;;;;;5.35;1.98;;;12.80;58.50;;;;;;5003907;28;20045;-93
2021/03/28 12:33:42;;;;;;;7.18;1.98;;;12.80;58.50;;;;;;4984098;28;20061;-87
2021/03/28 12:36:11;;;;;;;6.00;1.75;;;12.80;58.60;;;;;;4993314;28;20405;-88
2021/03/28 12:38:47;;;;;;;4.13;1.80;;;12.80;58.60;;;;;;4996109;28;20022;-86
2021/03/28 12:41:13;;;;;;;4.57;1.75;;;12.90;58.70;;;;;;5012798;28;20026;-92
2021/03/28 12:43:44;;;;;;;3.45;1.42;;;12.90;58.70;;;;;;5000864;28;20058;-89
2021/03/28 12:46:54;;;;;;;4.78;1.80;;;12.90;58.70;;;;;;4995369;28;20027;-87
2021/03/28 12:49:49;;;;;;;5.38;2.30;;;12.90;58.70;;;;;;4988322;28;20030;-89
2021/03/28 12:52:33;;;;;;;6.15;1.80;;;12.80;58.50;;;;;;4991663;28;20050;-90
2021/03/28 12:55:27;;;;;;;5.82;1.60;;;12.80;58.70;;;;;;4992773;28;20397;-87
2021/03/28 12:57:55;;;;;;;5.95;2.13;;;12.80;58.80;;;;;;4984173;28;20077;-86
2021/03/28 13:00:42;;;;;;;4.55;1.80;;;12.80;58.90;;;;;;4997082;28;20034;-90
2021/03/28 13:03:18;;;;;;;8.80;2.20;;;12.80;59.10;;;;;;5005757;28;20077;-91
2021/03/28 13:06:22;;;;;;;5.30;1.90;;;12.80;59.10;;;;;;4999369;28;20038;-91
2021/03/28 13:08:49;;;;;;;4.18;1.50;;;12.90;59.10;;;;;;4995465;28;20087;-89
2021/03/28 13:11:38;;;;;;;3.95;1.60;;;12.80;59.10;;;;;;5004116;28;20045;-91
2021/03/28 13:14:07;;;;;;;6.05;2.05;;;12.90;59.10;;;;;;4997322;28;20104;-91
2021/03/28 13:16:54;;;;;;;5.80;1.67;;;12.90;59.60;;;;;;4990589;28;20026;-90
2021/03/28 13:19:34;;;;;;;3.28;1.60;;;12.90;58.90;;;;;;4976518;28;20042;-90
2021/03/28 13:22:37;;;;;;;3.22;1.50;;;12.80;58.80;;;;;;4987329;28;20031;-91
2021/03/28 13:25:18;;;;;;;2.08;1.10;;;12.90;58.90;;;;;;4989676;28;20512;-89
2021/03/28 13:27:59;;;;;;;6.13;1.60;;;12.90;58.80;;;;;;4992057;28;20084;-91
2021/03/28 13:30:29;;;;;;;4.88;1.67;;;12.90;58.60;;;;;;4993525;28;20030;-90
2021/03/28 13:32:55;;;;;;;4.18;1.70;;;12.80;58.70;;;;;;4995190;28;20026;-92
2021/03/28 13:35:40;;;;;;;3.92;1.42;;;12.90;58.80;;;;;;4984325;28;20166;-91
2021/03/28 13:38:27;;;;;;;4.32;1.90;;;12.90;58.90;;;;;;4987774;28;20089;-93
2021/03/28 13:41:03;;;;;;;4.30;1.73;;;12.90;58.80;;;;;;4992729;28;20085;-93
2021/03/28 13:43:35;;;;;;;5.72;1.92;;;12.90;58.80;;;;;;4992580;28;20660;-93
2021/03/28 13:46:17;;;;;;;8.77;2.00;;;12.90;58.70;;;;;;4994899;28;20126;-93
2021/03/28 13:48:45;;;;;;;6.22;3.30;;;12.90;58.60;;;;;;4994038;28;20117;-94
2021/03/28 13:51:14;;;;;;;3.88;1.90;;;12.90;58.70;;;;;;4994952;28;20492;-94
2021/03/28 13:54:11;;;;;;;4.88;1.85;;;12.90;58.60;;;;;;4994572;28;20023;-93
2021/03/28 13:56:50;;;;;;;5.18;1.42;;;13.00;58.60;;;;;;4981445;28;20038;-94
2021/03/28 13:59:18;;;;;;;4.80;1.60;;;13.00;58.60;;;;;;4993202;28;20041;-95
2021/03/28 14:01:48;;;;;;;5.18;1.90;;;13.00;58.60;;;;;;4991335;28;20045;-93
2021/03/28 14:04:17;;;;;;;5.72;1.52;;;12.90;58.60;;;;;;4989556;28;20030;-95
2021/03/28 14:07:15;;;;;;;3.78;1.48;;;13.00;58.70;;;;;;4994316;28;20038;-94
2021/03/28 14:09:50;;;;;;;5.97;1.80;;;13.00;58.70;;;;;;4976367;28;20042;-92
2021/03/28 14:12:25;;;;;;;2.78;1.40;;;13.00;58.80;;;;;;4983614;28;20066;-93
2021/03/28 14:15:21;;;;;;;5.25;1.85;;;13.10;58.90;;;;;;4984017;28;20037;-93
2021/03/28 14:18:11;;;;;;;6.40;1.95;;;13.10;59.00;;;;;;4984087;28;20034;-93
2021/03/28 14:20:41;;;;;;;4.18;1.60;;;13.00;59.00;;;;;;4990043;28;20041;-90
2021/03/28 14:23:10;;;;;;;4.25;1.60;;;13.00;59.00;;;;;;4991026;28;20121;-91
2021/03/28 14:25:53;;;;;;;4.53;1.60;;;13.10;59.10;;;;;;4991300;28;20029;-89
2021/03/28 14:28:27;;;;;;;5.57;1.75;;;13.10;59.10;;;;;;4988792;28;20085;-93
2021/03/28 14:31:04;;;;;;;6.25;1.98;;;13.10;59.00;;;;;;4986731;28;20042;-87
2021/03/28 14:34:04;;;;;;;7.80;2.15;;;13.10;58.90;;;;;;4992156;28;20022;-90
2021/03/28 14:36:57;;;;;;;8.40;2.42;;;13.20;58.80;;;;;;4992507;28;20026;-92
2021/03/28 14:40:20;;;;;;;5.32;2.15;;;13.20;58.70;;;;;;4986345;28;20171;-95
2021/03/28 14:43:27;;;;;;;5.30;2.50;;;13.20;58.50;;;;;;4939995;29;20059;-94
2021/03/28 14:46:22;;;;;;;6.80;2.25;;;13.30;58.70;;;;;;4944481;28;20035;-93
2021/03/28 14:49:04;;;;;;;5.93;2.25;;;13.40;58.50;;;;;;4981280;28;20031;-93
2021/03/28 14:51:39;;;;;;;4.43;1.90;;;13.40;58.40;;;;;;4986955;28;20026;-92
2021/03/28 14:54:38;;;;;;;6.63;2.60;;;13.40;58.30;;;;;;4987553;28;20105;-91
2021/03/28 14:57:19;;;;;;;5.38;2.15;;;13.40;58.10;;;;;;4992220;28;20050;-91
2021/03/28 15:00:14;;;;;;;6.47;2.30;;;13.50;58.10;;;;;;4990302;28;20022;-89
2021/03/28 15:03:23;;;;;;;7.72;3.42;;;13.50;58.20;;;;;;4984058;28;20073;-90
2021/03/28 15:06:11;;;;;;;8.23;2.85;;;13.50;58.10;;;;;;4988113;28;20049;-88